sensor_id;sensor_type;location;lat;lon;timestamp;temperature;humidity
58469;DHT22;44257;44.804;10.220;2023-02-01T00:01:45;0.70;99.90
58469;DHT22;44257;44.804;10.220;2023-02-01T00:04:10;0.60;99.90
58469;DHT22;44257;44.804;10.220;2023-02-01T00:06:36;0.50;99.90
58469;DHT22;44257;44.804;10.220;2023-02-01T00:09:02;0.40;99.90
58469;DHT22;44257;44.804;10.220;2023-02-01T00:11:28;0.30;99.90
58469;DHT22;44257;44.804;10.220;2023-02-01T00:13:54;0.20;99.90
58469;DHT22;44257;44.804;10.220;2023-02-01T00:16:25;0.20;99.90
58469;DHT22;44257;44.804;10.220;2023-02-01T00:18:52;0.20;99.90
58469;DHT22;44257;44.804;10.220;2023-02-01T00:21:22;0.10;99.90
58469;DHT22;44257;44.804;10.220;2023-02-01T00:23:48;0.10;99.90
58469;DHT22;44257;44.804;10.220;2023-02-01T00:26:18;0.20;99.90
58469;DHT22;44257;44.804;10.220;2023-02-01T00:28:45;0.20;99.90
58469;DHT22;44257;44.804;10.220;2023-02-01T00:31:11;0.20;99.90
58469;DHT22;44257;44.804;10.220;2023-02-01T00:33:37;0.20;99.90
58469;DHT22;44257;44.804;10.220;2023-02-01T00:36:05;0.20;99.90
58469;DHT22;44257;44.804;10.220;2023-02-01T00:38:33;0.40;99.90
58469;DHT22;44257;44.804;10.220;2023-02-01T00:41:04;0.40;99.90
58469;DHT22;44257;44.804;10.220;2023-02-01T00:43:31;0.40;99.90
58469;DHT22;44257;44.804;10.220;2023-02-01T00:45:57;0.20;99.90
58469;DHT22;44257;44.804;10.220;2023-02-01T00:48:24;0.20;99.90
58469;DHT22;44257;44.804;10.220;2023-02-01T00:50:50;0.10;99.90
58469;DHT22;44257;44.804;10.220;2023-02-01T00:53:16;0.10;99.90
58469;DHT22;44257;44.804;10.220;2023-02-01T00:55:47;0.00;99.90
58469;DHT22;44257;44.804;10.220;2023-02-01T00:58:14;-0.10;99.90
58469;DHT22;44257;44.804;10.220;2023-02-01T01:00:40;-0.20;99.90
58469;DHT22;44257;44.804;10.220;2023-02-01T01:03:06;-0.30;99.90
58469;DHT22;44257;44.804;10.220;2023-02-01T01:05:48;-0.30;99.90
58469;DHT22;44257;44.804;10.220;2023-02-01T01:08:15;-0.30;99.90
58469;DHT22;44257;44.804;10.220;2023-02-01T01:10:41;-0.50;99.90
58469;DHT22;44257;44.804;10.220;2023-02-01T01:13:08;-0.60;99.90
58469;DHT22;44257;44.804;10.220;2023-02-01T01:15:38;-0.60;99.90
58469;DHT22;44257;44.804;10.220;2023-02-01T01:18:05;-0.70;99.90
58469;DHT22;44257;44.804;10.220;2023-02-01T01:20:33;-0.90;99.90
58469;DHT22;44257;44.804;10.220;2023-02-01T01:22:59;-1.00;99.90
58469;DHT22;44257;44.804;10.220;2023-02-01T01:25:24;-1.10;99.90
58469;DHT22;44257;44.804;10.220;2023-02-01T01:27:50;-1.10;99.90
58469;DHT22;44257;44.804;10.220;2023-02-01T01:30:16;-1.20;99.90
58469;DHT22;44257;44.804;10.220;2023-02-01T01:32:43;-1.20;99.90
58469;DHT22;44257;44.804;10.220;2023-02-01T01:35:10;-1.20;99.90
58469;DHT22;44257;44.804;10.220;2023-02-01T01:37:36;-1.20;99.90
58469;DHT22;44257;44.804;10.220;2023-02-01T01:40:04;-1.10;99.90
58469;DHT22;44257;44.804;10.220;2023-02-01T01:42:30;-1.10;99.90
58469;DHT22;44257;44.804;10.220;2023-02-01T01:47:22;-1.10;99.90
58469;DHT22;44257;44.804;10.220;2023-02-01T01:49:47;-1.20;99.90
58469;DHT22;44257;44.804;10.220;2023-02-01T01:52:14;-1.20;99.90
58469;DHT22;44257;44.804;10.220;2023-02-01T01:54:46;-1.10;99.90
58469;DHT22;44257;44.804;10.220;2023-02-01T01:57:34;-1.20;99.90
58469;DHT22;44257;44.804;10.220;2023-02-01T02:02:40;-1.20;99.90
58469;DHT22;44257;44.804;10.220;2023-02-01T02:05:08;-1.10;99.90
58469;DHT22;44257;44.804;10.220;2023-02-01T02:07:37;-1.10;99.90
58469;DHT22;44257;44.804;10.220;2023-02-01T02:10:06;-1.10;99.90
58469;DHT22;44257;44.804;10.220;2023-02-01T02:12:39;-1.20;99.90
58469;DHT22;44257;44.804;10.220;2023-02-01T02:15:07;-1.20;99.90
58469;DHT22;44257;44.804;10.220;2023-02-01T02:17:49;-1.30;99.90
58469;DHT22;44257;44.804;10.220;2023-02-01T02:20:45;-1.30;99.90
58469;DHT22;44257;44.804;10.220;2023-02-01T02:37:51;-1.10;99.90
58469;DHT22;44257;44.804;10.220;2023-02-01T02:43:22;-1.10;99.90
58469;DHT22;44257;44.804;10.220;2023-02-01T02:46:29;-1.10;99.90
58469;DHT22;44257;44.804;10.220;2023-02-01T02:49:38;-1.10;99.90
58469;DHT22;44257;44.804;10.220;2023-02-01T02:52:12;-1.10;99.90
58469;DHT22;44257;44.804;10.220;2023-02-01T02:54:59;-1.20;99.90
58469;DHT22;44257;44.804;10.220;2023-02-01T02:57:36;-1.20;99.90
58469;DHT22;44257;44.804;10.220;2023-02-01T03:00:32;-1.20;99.90
58469;DHT22;44257;44.804;10.220;2023-02-01T03:03:18;-1.20;99.90
58469;DHT22;44257;44.804;10.220;2023-02-01T03:06:03;-1.20;99.90
58469;DHT22;44257;44.804;10.220;2023-02-01T03:08:30;-1.20;99.90
58469;DHT22;44257;44.804;10.220;2023-02-01T03:13:45;-1.30;99.90
58469;DHT22;44257;44.804;10.220;2023-02-01T03:16:28;-1.30;99.90
58469;DHT22;44257;44.804;10.220;2023-02-01T03:22:07;-1.30;99.90
58469;DHT22;44257;44.804;10.220;2023-02-01T03:24:55;-1.40;99.90
58469;DHT22;44257;44.804;10.220;2023-02-01T03:27:21;-1.40;99.90
58469;DHT22;44257;44.804;10.220;2023-02-01T03:32:15;-1.40;99.90
58469;DHT22;44257;44.804;10.220;2023-02-01T03:34:41;-1.40;99.90
58469;DHT22;44257;44.804;10.220;2023-02-01T03:37:13;-1.50;99.90
58469;DHT22;44257;44.804;10.220;2023-02-01T03:39:46;-1.50;99.90
58469;DHT22;44257;44.804;10.220;2023-02-01T03:42:14;-1.50;99.90
58469;DHT22;44257;44.804;10.220;2023-02-01T03:44:53;-1.50;99.90
58469;DHT22;44257;44.804;10.220;2023-02-01T03:47:23;-1.50;99.90
58469;DHT22;44257;44.804;10.220;2023-02-01T03:49:57;-1.50;99.90
58469;DHT22;44257;44.804;10.220;2023-02-01T03:52:42;-1.50;99.90
58469;DHT22;44257;44.804;10.220;2023-02-01T03:55:09;-1.40;99.90
58469;DHT22;44257;44.804;10.220;2023-02-01T03:57:43;-1.40;99.90
58469;DHT22;44257;44.804;10.220;2023-02-01T04:00:16;-1.40;99.90
58469;DHT22;44257;44.804;10.220;2023-02-01T04:02:44;-1.40;99.90
58469;DHT22;44257;44.804;10.220;2023-02-01T04:05:09;-1.40;99.90
58469;DHT22;44257;44.804;10.220;2023-02-01T04:07:38;-1.50;99.90
58469;DHT22;44257;44.804;10.220;2023-02-01T04:10:04;-1.50;99.90
58469;DHT22;44257;44.804;10.220;2023-02-01T04:12:30;-1.50;99.90
58469;DHT22;44257;44.804;10.220;2023-02-01T04:14:56;-1.50;99.90
58469;DHT22;44257;44.804;10.220;2023-02-01T04:17:22;-1.60;99.90
58469;DHT22;44257;44.804;10.220;2023-02-01T04:19:47;-1.70;99.90
58469;DHT22;44257;44.804;10.220;2023-02-01T04:22:13;-1.70;99.90
58469;DHT22;44257;44.804;10.220;2023-02-01T04:24:39;-1.70;99.90
58469;DHT22;44257;44.804;10.220;2023-02-01T04:27:05;-1.60;99.90
58469;DHT22;44257;44.804;10.220;2023-02-01T04:29:30;-1.60;99.90
58469;DHT22;44257;44.804;10.220;2023-02-01T04:31:56;-1.60;99.90
58469;DHT22;44257;44.804;10.220;2023-02-01T04:34:22;-1.60;99.90
58469;DHT22;44257;44.804;10.220;2023-02-01T04:36:50;-1.60;99.90
58469;DHT22;44257;44.804;10.220;2023-02-01T04:39:17;-1.50;99.90
58469;DHT22;44257;44.804;10.220;2023-02-01T04:41:43;-1.50;99.90
58469;DHT22;44257;44.804;10.220;2023-02-01T04:44:17;-1.50;99.90
58469;DHT22;44257;44.804;10.220;2023-02-01T04:46:43;-1.50;99.90
58469;DHT22;44257;44.804;10.220;2023-02-01T04:49:10;-1.60;99.90
58469;DHT22;44257;44.804;10.220;2023-02-01T04:51:37;-1.60;99.90
58469;DHT22;44257;44.804;10.220;2023-02-01T04:54:03;-1.70;99.90
58469;DHT22;44257;44.804;10.220;2023-02-01T04:56:29;-1.70;99.90
58469;DHT22;44257;44.804;10.220;2023-02-01T04:58:55;-1.70;99.90
58469;DHT22;44257;44.804;10.220;2023-02-01T05:01:21;-1.60;99.90
58469;DHT22;44257;44.804;10.220;2023-02-01T05:03:47;-1.70;99.90
58469;DHT22;44257;44.804;10.220;2023-02-01T05:06:13;-1.60;99.90
58469;DHT22;44257;44.804;10.220;2023-02-01T05:08:39;-1.60;99.90
58469;DHT22;44257;44.804;10.220;2023-02-01T05:11:06;-1.70;99.90
58469;DHT22;44257;44.804;10.220;2023-02-01T05:13:31;-1.70;99.90
58469;DHT22;44257;44.804;10.220;2023-02-01T05:16:16;-1.80;99.90
58469;DHT22;44257;44.804;10.220;2023-02-01T05:18:42;-1.80;99.90
58469;DHT22;44257;44.804;10.220;2023-02-01T05:21:08;-1.80;99.90
58469;DHT22;44257;44.804;10.220;2023-02-01T05:23:33;-1.90;99.90
58469;DHT22;44257;44.804;10.220;2023-02-01T05:26:19;-1.90;99.90
58469;DHT22;44257;44.804;10.220;2023-02-01T05:28:45;-1.90;99.90
58469;DHT22;44257;44.804;10.220;2023-02-01T05:31:11;-1.90;99.90
58469;DHT22;44257;44.804;10.220;2023-02-01T05:33:37;-1.80;99.90
58469;DHT22;44257;44.804;10.220;2023-02-01T05:36:03;-1.70;99.90
58469;DHT22;44257;44.804;10.220;2023-02-01T05:38:28;-1.50;99.90
58469;DHT22;44257;44.804;10.220;2023-02-01T05:40:55;-1.40;99.90
58469;DHT22;44257;44.804;10.220;2023-02-01T05:43:21;-1.40;99.90
58469;DHT22;44257;44.804;10.220;2023-02-01T05:45:47;-1.40;99.90
58469;DHT22;44257;44.804;10.220;2023-02-01T05:48:13;-1.50;99.90
58469;DHT22;44257;44.804;10.220;2023-02-01T05:50:39;-1.60;99.90
58469;DHT22;44257;44.804;10.220;2023-02-01T05:53:08;-1.60;99.90
58469;DHT22;44257;44.804;10.220;2023-02-01T05:55:34;-1.60;99.90
58469;DHT22;44257;44.804;10.220;2023-02-01T05:57:59;-1.60;99.90
58469;DHT22;44257;44.804;10.220;2023-02-01T06:00:25;-1.70;99.90
58469;DHT22;44257;44.804;10.220;2023-02-01T06:02:51;-1.70;99.90
58469;DHT22;44257;44.804;10.220;2023-02-01T06:05:17;-1.70;99.90
58469;DHT22;44257;44.804;10.220;2023-02-01T06:07:43;-1.80;99.90
58469;DHT22;44257;44.804;10.220;2023-02-01T06:10:09;-1.80;99.90
58469;DHT22;44257;44.804;10.220;2023-02-01T06:12:35;-1.70;99.90
58469;DHT22;44257;44.804;10.220;2023-02-01T06:15:01;-1.70;99.90
58469;DHT22;44257;44.804;10.220;2023-02-01T06:17:27;-1.70;99.90
58469;DHT22;44257;44.804;10.220;2023-02-01T06:19:52;-1.60;99.90
58469;DHT22;44257;44.804;10.220;2023-02-01T06:22:18;-1.50;99.90
58469;DHT22;44257;44.804;10.220;2023-02-01T06:24:44;-1.50;99.90
58469;DHT22;44257;44.804;10.220;2023-02-01T06:27:10;-1.50;99.90
58469;DHT22;44257;44.804;10.220;2023-02-01T06:29:36;-1.60;99.90
58469;DHT22;44257;44.804;10.220;2023-02-01T06:32:02;-1.70;99.90
58469;DHT22;44257;44.804;10.220;2023-02-01T06:34:28;-1.70;99.90
58469;DHT22;44257;44.804;10.220;2023-02-01T06:36:54;-1.80;99.90
58469;DHT22;44257;44.804;10.220;2023-02-01T06:39:20;-1.80;99.90
58469;DHT22;44257;44.804;10.220;2023-02-01T06:41:50;-1.70;99.90
58469;DHT22;44257;44.804;10.220;2023-02-01T06:44:16;-1.60;99.90
58469;DHT22;44257;44.804;10.220;2023-02-01T06:46:42;-1.60;99.90
58469;DHT22;44257;44.804;10.220;2023-02-01T06:49:08;-1.60;99.90
58469;DHT22;44257;44.804;10.220;2023-02-01T06:52:11;-1.60;99.90
58469;DHT22;44257;44.804;10.220;2023-02-01T06:54:37;-1.60;99.90
58469;DHT22;44257;44.804;10.220;2023-02-01T06:57:03;-1.50;99.90
58469;DHT22;44257;44.804;10.220;2023-02-01T06:59:29;-1.50;99.90
58469;DHT22;44257;44.804;10.220;2023-02-01T07:01:55;-1.40;99.90
58469;DHT22;44257;44.804;10.220;2023-02-01T07:04:21;-1.20;99.90
58469;DHT22;44257;44.804;10.220;2023-02-01T07:06:47;-1.10;99.90
58469;DHT22;44257;44.804;10.220;2023-02-01T07:09:13;-1.10;99.90
58469;DHT22;44257;44.804;10.220;2023-02-01T07:11:39;-0.90;99.90
58469;DHT22;44257;44.804;10.220;2023-02-01T07:14:12;-0.80;99.90
58469;DHT22;44257;44.804;10.220;2023-02-01T07:16:38;-0.70;99.90
58469;DHT22;44257;44.804;10.220;2023-02-01T07:19:04;-0.50;99.90
58469;DHT22;44257;44.804;10.220;2023-02-01T07:21:30;-0.50;99.90
58469;DHT22;44257;44.804;10.220;2023-02-01T07:23:58;-0.30;99.90
58469;DHT22;44257;44.804;10.220;2023-02-01T07:26:24;-0.10;99.90
58469;DHT22;44257;44.804;10.220;2023-02-01T07:28:50;0.10;99.90
58469;DHT22;44257;44.804;10.220;2023-02-01T07:31:18;0.40;99.90
58469;DHT22;44257;44.804;10.220;2023-02-01T07:33:47;0.70;99.90
58469;DHT22;44257;44.804;10.220;2023-02-01T07:36:15;1.00;99.90
58469;DHT22;44257;44.804;10.220;2023-02-01T07:38:42;1.30;99.90
58469;DHT22;44257;44.804;10.220;2023-02-01T07:41:08;1.50;99.90
58469;DHT22;44257;44.804;10.220;2023-02-01T07:43:35;1.70;99.90
58469;DHT22;44257;44.804;10.220;2023-02-01T07:46:03;1.90;99.90
58469;DHT22;44257;44.804;10.220;2023-02-01T07:48:30;2.00;99.90
58469;DHT22;44257;44.804;10.220;2023-02-01T07:51:01;2.10;99.90
58469;DHT22;44257;44.804;10.220;2023-02-01T07:53:29;2.20;99.90
58469;DHT22;44257;44.804;10.220;2023-02-01T07:55:55;2.30;99.90
58469;DHT22;44257;44.804;10.220;2023-02-01T07:58:22;2.30;99.90
58469;DHT22;44257;44.804;10.220;2023-02-01T08:00:48;2.30;99.90
58469;DHT22;44257;44.804;10.220;2023-02-01T08:03:32;2.30;99.90
58469;DHT22;44257;44.804;10.220;2023-02-01T08:05:58;2.40;99.90
58469;DHT22;44257;44.804;10.220;2023-02-01T08:08:24;2.40;99.90
58469;DHT22;44257;44.804;10.220;2023-02-01T09:46:56;6.60;99.90
58469;DHT22;44257;44.804;10.220;2023-02-01T09:49:33;6.70;99.90
58469;DHT22;44257;44.804;10.220;2023-02-01T09:52:04;6.70;99.90
58469;DHT22;44257;44.804;10.220;2023-02-01T09:57:11;6.90;99.90
58469;DHT22;44257;44.804;10.220;2023-02-01T09:59:42;7.00;99.90
58469;DHT22;44257;44.804;10.220;2023-02-01T10:02:24;7.10;99.90
58469;DHT22;44257;44.804;10.220;2023-02-01T10:04:55;7.20;99.90
58469;DHT22;44257;44.804;10.220;2023-02-01T10:07:40;7.50;99.90
58469;DHT22;44257;44.804;10.220;2023-02-01T10:18:22;8.50;99.90
58469;DHT22;44257;44.804;10.220;2023-02-01T10:26:50;8.60;99.90
58469;DHT22;44257;44.804;10.220;2023-02-01T10:29:20;8.60;99.90
58469;DHT22;44257;44.804;10.220;2023-02-01T10:31:46;8.60;99.90
58469;DHT22;44257;44.804;10.220;2023-02-01T10:34:19;8.60;99.90
58469;DHT22;44257;44.804;10.220;2023-02-01T10:39:19;8.80;99.90
58469;DHT22;44257;44.804;10.220;2023-02-01T10:41:45;8.80;99.90
58469;DHT22;44257;44.804;10.220;2023-02-01T10:44:15;8.80;99.90
58469;DHT22;44257;44.804;10.220;2023-02-01T10:46:42;8.80;99.90
58469;DHT22;44257;44.804;10.220;2023-02-01T10:49:15;8.90;99.90
58469;DHT22;44257;44.804;10.220;2023-02-01T10:51:47;9.00;99.90
58469;DHT22;44257;44.804;10.220;2023-02-01T10:54:20;9.10;99.90
58469;DHT22;44257;44.804;10.220;2023-02-01T10:56:47;9.20;99.90
58469;DHT22;44257;44.804;10.220;2023-02-01T10:59:19;9.30;99.90
58469;DHT22;44257;44.804;10.220;2023-02-01T11:01:47;9.30;99.90
58469;DHT22;44257;44.804;10.220;2023-02-01T11:04:18;9.40;99.90
58469;DHT22;44257;44.804;10.220;2023-02-01T11:06:47;9.50;99.90
58469;DHT22;44257;44.804;10.220;2023-02-01T11:09:24;9.60;99.90
58469;DHT22;44257;44.804;10.220;2023-02-01T11:16:53;9.90;99.90
58469;DHT22;44257;44.804;10.220;2023-02-01T11:19:20;9.80;99.90
58469;DHT22;44257;44.804;10.220;2023-02-01T11:21:54;9.80;99.90
58469;DHT22;44257;44.804;10.220;2023-02-01T11:24:33;9.90;99.90
58469;DHT22;44257;44.804;10.220;2023-02-01T11:27:12;9.90;99.90
58469;DHT22;44257;44.804;10.220;2023-02-01T11:29:43;9.90;99.90
58469;DHT22;44257;44.804;10.220;2023-02-01T11:32:12;9.90;99.90
58469;DHT22;44257;44.804;10.220;2023-02-01T11:34:51;10.00;99.90
58469;DHT22;44257;44.804;10.220;2023-02-01T11:42:20;10.10;99.90
58469;DHT22;44257;44.804;10.220;2023-02-01T11:44:47;10.10;99.90
58469;DHT22;44257;44.804;10.220;2023-02-01T11:47:27;10.10;99.90
58469;DHT22;44257;44.804;10.220;2023-02-01T11:49:58;10.10;99.90
58469;DHT22;44257;44.804;10.220;2023-02-01T12:25:15;10.90;99.90
58469;DHT22;44257;44.804;10.220;2023-02-01T12:39:06;11.40;99.90
58469;DHT22;44257;44.804;10.220;2023-02-01T13:00:35;12.20;99.90
58469;DHT22;44257;44.804;10.220;2023-02-01T13:06:02;12.30;99.90
58469;DHT22;44257;44.804;10.220;2023-02-01T13:08:46;12.30;99.90
58469;DHT22;44257;44.804;10.220;2023-02-01T13:11:29;12.30;99.90
58469;DHT22;44257;44.804;10.220;2023-02-01T13:16:44;12.30;99.90
58469;DHT22;44257;44.804;10.220;2023-02-01T13:21:43;12.30;99.90
58469;DHT22;44257;44.804;10.220;2023-02-01T13:24:37;12.40;99.90
58469;DHT22;44257;44.804;10.220;2023-02-01T13:27:05;12.40;99.90
58469;DHT22;44257;44.804;10.220;2023-02-01T13:29:32;12.40;99.90
58469;DHT22;44257;44.804;10.220;2023-02-01T13:45:21;12.60;99.90
58469;DHT22;44257;44.804;10.220;2023-02-01T13:47:49;12.60;99.90
58469;DHT22;44257;44.804;10.220;2023-02-01T13:50:34;12.60;99.90
58469;DHT22;44257;44.804;10.220;2023-02-01T13:53:11;12.60;99.90
58469;DHT22;44257;44.804;10.220;2023-02-01T13:55:44;12.60;99.90
58469;DHT22;44257;44.804;10.220;2023-02-01T14:00:41;12.80;99.90
58469;DHT22;44257;44.804;10.220;2023-02-01T14:08:11;12.90;99.90
58469;DHT22;44257;44.804;10.220;2023-02-01T14:13:32;13.10;99.90
58469;DHT22;44257;44.804;10.220;2023-02-01T14:26:59;13.50;99.90
58469;DHT22;44257;44.804;10.220;2023-02-01T14:29:51;13.30;99.90
58469;DHT22;44257;44.804;10.220;2023-02-01T14:32:31;13.30;99.90
58469;DHT22;44257;44.804;10.220;2023-02-01T14:35:01;13.40;99.90
58469;DHT22;44257;44.804;10.220;2023-02-01T14:37:33;13.50;99.90
58469;DHT22;44257;44.804;10.220;2023-02-01T14:40:42;13.60;99.90
58469;DHT22;44257;44.804;10.220;2023-02-01T14:42:53;13.70;99.90
58469;DHT22;44257;44.804;10.220;2023-02-01T14:55:52;13.40;99.90
58469;DHT22;44257;44.804;10.220;2023-02-01T14:58:41;13.30;99.90
58469;DHT22;44257;44.804;10.220;2023-02-01T15:09:25;13.10;99.90
58469;DHT22;44257;44.804;10.220;2023-02-01T15:14:24;13.10;99.90
58469;DHT22;44257;44.804;10.220;2023-02-01T15:16:50;13.10;99.90
58469;DHT22;44257;44.804;10.220;2023-02-01T15:19:21;13.00;99.90
58469;DHT22;44257;44.804;10.220;2023-02-01T15:21:50;12.90;99.90
58469;DHT22;44257;44.804;10.220;2023-02-01T15:24:24;12.80;99.90
58469;DHT22;44257;44.804;10.220;2023-02-01T15:26:51;12.80;99.90
58469;DHT22;44257;44.804;10.220;2023-02-01T15:29:18;12.70;99.90
58469;DHT22;44257;44.804;10.220;2023-02-01T15:31:47;12.50;99.90
58469;DHT22;44257;44.804;10.220;2023-02-01T15:34:13;12.40;99.90
58469;DHT22;44257;44.804;10.220;2023-02-01T15:36:40;12.30;99.90
58469;DHT22;44257;44.804;10.220;2023-02-01T15:39:24;12.20;99.90
58469;DHT22;44257;44.804;10.220;2023-02-01T15:42:00;12.10;99.90
58469;DHT22;44257;44.804;10.220;2023-02-01T15:44:34;11.90;99.90
58469;DHT22;44257;44.804;10.220;2023-02-01T15:47:20;11.70;99.90
58469;DHT22;44257;44.804;10.220;2023-02-01T15:49:49;11.60;99.90
58469;DHT22;44257;44.804;10.220;2023-02-01T15:57:26;11.10;99.90
58469;DHT22;44257;44.804;10.220;2023-02-01T16:08:16;10.50;99.90
58469;DHT22;44257;44.804;10.220;2023-02-01T16:10:45;10.30;99.90
58469;DHT22;44257;44.804;10.220;2023-02-01T16:13:12;10.20;99.90
58469;DHT22;44257;44.804;10.220;2023-02-01T16:15:38;10.10;99.90
58469;DHT22;44257;44.804;10.220;2023-02-01T16:18:05;10.00;99.90
58469;DHT22;44257;44.804;10.220;2023-02-01T16:20:32;9.80;99.90
58469;DHT22;44257;44.804;10.220;2023-02-01T16:22:58;9.60;99.90
58469;DHT22;44257;44.804;10.220;2023-02-01T16:25:24;9.40;99.90
58469;DHT22;44257;44.804;10.220;2023-02-01T16:27:50;9.20;99.90
58469;DHT22;44257;44.804;10.220;2023-02-01T16:30:16;9.00;99.90
58469;DHT22;44257;44.804;10.220;2023-02-01T16:32:48;8.70;99.90
58469;DHT22;44257;44.804;10.220;2023-02-01T16:35:32;8.60;99.90
58469;DHT22;44257;44.804;10.220;2023-02-01T16:38:15;8.40;99.90
58469;DHT22;44257;44.804;10.220;2023-02-01T16:40:44;8.30;99.90
58469;DHT22;44257;44.804;10.220;2023-02-01T16:45:42;8.00;99.90
58469;DHT22;44257;44.804;10.220;2023-02-01T16:48:24;7.90;99.90
58469;DHT22;44257;44.804;10.220;2023-02-01T16:50:53;7.70;99.90
58469;DHT22;44257;44.804;10.220;2023-02-01T16:53:21;7.50;99.90
58469;DHT22;44257;44.804;10.220;2023-02-01T16:55:47;7.40;99.90
58469;DHT22;44257;44.804;10.220;2023-02-01T16:58:16;7.20;99.90
58469;DHT22;44257;44.804;10.220;2023-02-01T17:00:43;7.20;99.90
58469;DHT22;44257;44.804;10.220;2023-02-01T17:07:14;6.80;99.90
58469;DHT22;44257;44.804;10.220;2023-02-01T17:09:41;6.60;99.90
58469;DHT22;44257;44.804;10.220;2023-02-01T17:12:35;6.50;99.90
58469;DHT22;44257;44.804;10.220;2023-02-01T17:15:01;6.50;99.90
58469;DHT22;44257;44.804;10.220;2023-02-01T17:17:36;6.50;99.90
58469;DHT22;44257;44.804;10.220;2023-02-01T17:20:03;6.30;99.90
58469;DHT22;44257;44.804;10.220;2023-02-01T17:22:29;6.30;99.90
58469;DHT22;44257;44.804;10.220;2023-02-01T17:24:55;6.40;99.90
58469;DHT22;44257;44.804;10.220;2023-02-01T17:27:21;6.50;99.90
58469;DHT22;44257;44.804;10.220;2023-02-01T17:29:47;6.60;99.90
58469;DHT22;44257;44.804;10.220;2023-02-01T17:32:20;6.50;99.90
58469;DHT22;44257;44.804;10.220;2023-02-01T17:34:46;6.40;99.90
58469;DHT22;44257;44.804;10.220;2023-02-01T17:37:24;6.20;99.90
58469;DHT22;44257;44.804;10.220;2023-02-01T17:39:50;6.00;99.90
58469;DHT22;44257;44.804;10.220;2023-02-01T17:42:19;6.00;99.90
58469;DHT22;44257;44.804;10.220;2023-02-01T17:44:45;5.90;99.90
58469;DHT22;44257;44.804;10.220;2023-02-01T17:47:11;5.80;99.90
58469;DHT22;44257;44.804;10.220;2023-02-01T17:49:37;5.70;99.90
58469;DHT22;44257;44.804;10.220;2023-02-01T17:52:04;5.60;99.90
58469;DHT22;44257;44.804;10.220;2023-02-01T17:58:12;5.30;99.90
58469;DHT22;44257;44.804;10.220;2023-02-01T18:00:39;5.30;99.90
58469;DHT22;44257;44.804;10.220;2023-02-01T18:03:05;5.30;99.90
58469;DHT22;44257;44.804;10.220;2023-02-01T18:05:41;5.30;99.90
58469;DHT22;44257;44.804;10.220;2023-02-01T18:08:09;5.40;99.90
58469;DHT22;44257;44.804;10.220;2023-02-01T18:10:35;5.40;99.90
58469;DHT22;44257;44.804;10.220;2023-02-01T18:13:01;5.50;99.90
58469;DHT22;44257;44.804;10.220;2023-02-01T18:15:29;5.50;99.90
58469;DHT22;44257;44.804;10.220;2023-02-01T18:17:55;5.50;99.90
58469;DHT22;44257;44.804;10.220;2023-02-01T18:20:23;5.50;99.90
58469;DHT22;44257;44.804;10.220;2023-02-01T18:22:50;5.40;99.90
58469;DHT22;44257;44.804;10.220;2023-02-01T18:25:24;5.50;99.90
58469;DHT22;44257;44.804;10.220;2023-02-01T18:27:52;5.50;99.90
58469;DHT22;44257;44.804;10.220;2023-02-01T18:30:20;5.40;99.90
58469;DHT22;44257;44.804;10.220;2023-02-01T18:32:47;5.40;99.90
58469;DHT22;44257;44.804;10.220;2023-02-01T18:35:24;5.30;99.90
58469;DHT22;44257;44.804;10.220;2023-02-01T18:37:51;5.20;99.90
58469;DHT22;44257;44.804;10.220;2023-02-01T18:40:20;5.20;99.90
58469;DHT22;44257;44.804;10.220;2023-02-01T18:42:46;5.30;99.90
58469;DHT22;44257;44.804;10.220;2023-02-01T18:45:35;5.30;99.90
58469;DHT22;44257;44.804;10.220;2023-02-01T18:48:03;5.30;99.90
58469;DHT22;44257;44.804;10.220;2023-02-01T18:50:31;5.30;99.90
58469;DHT22;44257;44.804;10.220;2023-02-01T18:53:00;5.40;99.90
58469;DHT22;44257;44.804;10.220;2023-02-01T18:55:27;5.50;99.90
58469;DHT22;44257;44.804;10.220;2023-02-01T18:57:53;5.60;99.90
58469;DHT22;44257;44.804;10.220;2023-02-01T19:00:20;5.70;99.90
58469;DHT22;44257;44.804;10.220;2023-02-01T19:02:47;5.70;99.90
58469;DHT22;44257;44.804;10.220;2023-02-01T19:05:14;5.70;99.90
58469;DHT22;44257;44.804;10.220;2023-02-01T19:07:40;5.80;99.90
58469;DHT22;44257;44.804;10.220;2023-02-01T19:10:10;5.80;99.90
58469;DHT22;44257;44.804;10.220;2023-02-01T19:12:36;5.70;99.90
58469;DHT22;44257;44.804;10.220;2023-02-01T19:15:05;5.70;99.90
58469;DHT22;44257;44.804;10.220;2023-02-01T19:17:31;5.60;99.90
58469;DHT22;44257;44.804;10.220;2023-02-01T19:19:57;5.40;99.90
58469;DHT22;44257;44.804;10.220;2023-02-01T19:22:24;5.30;99.90
58469;DHT22;44257;44.804;10.220;2023-02-01T19:24:50;5.10;99.90
58469;DHT22;44257;44.804;10.220;2023-02-01T19:27:17;4.90;99.90
58469;DHT22;44257;44.804;10.220;2023-02-01T19:29:43;4.80;99.90
58469;DHT22;44257;44.804;10.220;2023-02-01T19:32:12;4.70;99.90
58469;DHT22;44257;44.804;10.220;2023-02-01T19:34:38;4.60;99.90
58469;DHT22;44257;44.804;10.220;2023-02-01T19:37:08;4.60;99.90
58469;DHT22;44257;44.804;10.220;2023-02-01T19:39:34;4.60;99.90
58469;DHT22;44257;44.804;10.220;2023-02-01T19:42:03;4.50;99.90
58469;DHT22;44257;44.804;10.220;2023-02-01T19:44:29;4.50;99.90
58469;DHT22;44257;44.804;10.220;2023-02-01T19:46:55;4.50;99.90
58469;DHT22;44257;44.804;10.220;2023-02-01T19:49:21;4.60;99.90
58469;DHT22;44257;44.804;10.220;2023-02-01T19:51:47;4.60;99.90
58469;DHT22;44257;44.804;10.220;2023-02-01T19:54:13;4.60;99.90
58469;DHT22;44257;44.804;10.220;2023-02-01T19:56:40;4.60;99.90
58469;DHT22;44257;44.804;10.220;2023-02-01T19:59:06;4.70;99.90
58469;DHT22;44257;44.804;10.220;2023-02-01T20:01:33;4.80;99.90
58469;DHT22;44257;44.804;10.220;2023-02-01T20:03:59;5.00;99.90
58469;DHT22;44257;44.804;10.220;2023-02-01T20:06:29;5.10;99.90
58469;DHT22;44257;44.804;10.220;2023-02-01T20:08:56;5.30;99.90
58469;DHT22;44257;44.804;10.220;2023-02-01T20:11:25;5.50;99.90
58469;DHT22;44257;44.804;10.220;2023-02-01T20:13:52;5.60;99.90
58469;DHT22;44257;44.804;10.220;2023-02-01T20:16:19;5.70;99.90
58469;DHT22;44257;44.804;10.220;2023-02-01T20:18:45;5.80;99.90
58469;DHT22;44257;44.804;10.220;2023-02-01T20:21:11;6.00;99.90
58469;DHT22;44257;44.804;10.220;2023-02-01T20:23:37;6.10;99.90
58469;DHT22;44257;44.804;10.220;2023-02-01T20:26:04;6.10;99.90
58469;DHT22;44257;44.804;10.220;2023-02-01T20:28:31;6.10;99.90
58469;DHT22;44257;44.804;10.220;2023-02-01T20:30:57;6.00;99.90
58469;DHT22;44257;44.804;10.220;2023-02-01T20:33:23;6.00;99.90
58469;DHT22;44257;44.804;10.220;2023-02-01T20:35:51;6.00;99.90
58469;DHT22;44257;44.804;10.220;2023-02-01T20:38:16;6.20;99.90
58469;DHT22;44257;44.804;10.220;2023-02-01T20:40:42;6.40;99.90
58469;DHT22;44257;44.804;10.220;2023-02-01T20:43:08;6.80;99.90
58469;DHT22;44257;44.804;10.220;2023-02-01T20:45:41;7.00;99.90